Terminal Aerodrome Forecast
Issued by NWS

Home | Current Version | Previous Version | Text Only | Print | Product List | Glossary On
Versions: 1 2 3 4 5 6 7 8 9 10 11 12 13 14 15 16 17 18 19 20 21 22 23 24 25 26 27 28 29 30 31 32 33 34 35 36 37 38 39 40 41 42 43 44 45 46 47 48 49 50
000
FTUS46 KOTX 280539
TAFPUW
TAF
KPUW 280539Z 2806/2906 25018G25KT P6SM -SHRA BKN012 OVC020
     FM280700 25011KT 6SM BR VCSH BKN009
     FM281000 30012KT 5SM -SHRASN BR OVC015
     FM281100 27009KT 2SM -SHSN BKN010 OVC020
     FM281500 28008KT P6SM VCSH BKN012=

USA.gov is the U.S. government's official web portal to all federal, state and local government web resources and services.